createdAt,value
2017-06-03T00:00:27.364Z,26.00
2017-06-03T00:01:28.094Z,30.00
2017-06-03T00:02:28.823Z,34.00
2017-06-03T00:03:29.575Z,33.00
2017-06-03T00:04:30.304Z,33.00
2017-06-03T00:05:31.280Z,30.00
2017-06-03T00:06:32.006Z,31.00
2017-06-03T00:07:32.733Z,35.00
2017-06-03T00:08:33.460Z,33.00
2017-06-03T00:09:34.187Z,33.00
2017-06-03T00:10:35.165Z,33.00
2017-06-03T00:11:35.894Z,39.00
2017-06-03T00:12:36.619Z,36.00
2017-06-03T00:13:37.350Z,38.00
2017-06-03T00:14:38.100Z,42.00
2017-06-03T00:15:39.074Z,31.00
2017-06-03T00:16:39.800Z,37.00
2017-06-03T00:17:40.528Z,37.00
2017-06-03T00:18:41.256Z,36.00
2017-06-03T00:19:41.982Z,34.00
2017-06-03T00:20:42.962Z,37.00
2017-06-03T00:21:43.690Z,40.00
2017-06-03T00:22:44.417Z,37.00
2017-06-03T00:23:45.143Z,35.00
2017-06-03T00:24:45.871Z,37.00
2017-06-03T00:25:46.853Z,31.00
2017-06-03T00:26:47.598Z,30.00
2017-06-03T00:27:48.321Z,33.00
2017-06-03T00:28:49.049Z,30.00
2017-06-03T00:29:49.775Z,29.00
2017-06-03T00:30:50.752Z,29.00
2017-06-03T00:31:51.480Z,28.00
2017-06-03T00:32:52.205Z,29.00
2017-06-03T00:33:52.932Z,23.00
2017-06-03T00:34:53.659Z,21.00
2017-06-03T00:35:54.637Z,29.00
2017-06-03T00:36:55.388Z,22.00
2017-06-03T00:37:56.113Z,24.00
2017-06-03T00:38:56.839Z,22.00
2017-06-03T00:39:57.566Z,28.00
2017-06-03T00:40:58.546Z,22.00
2017-06-03T00:41:59.274Z,25.00
2017-06-03T00:43:00.001Z,24.00
2017-06-03T00:44:00.749Z,24.00
2017-06-03T00:45:01.452Z,21.00
2017-06-03T00:46:02.431Z,21.00
2017-06-03T00:47:03.159Z,25.00
2017-06-03T00:48:03.885Z,21.00
2017-06-03T00:49:04.613Z,22.00
2017-06-03T00:50:05.340Z,24.00
2017-06-03T00:51:06.319Z,21.00
2017-06-03T00:52:07.049Z,23.00
2017-06-03T00:53:07.777Z,23.00
2017-06-03T00:54:08.501Z,22.00
2017-06-03T00:55:09.230Z,21.00
2017-06-03T00:56:10.208Z,23.00
2017-06-03T00:57:10.938Z,23.00
2017-06-03T00:58:11.662Z,22.00
2017-06-03T00:59:12.391Z,23.00
2017-06-03T01:00:13.118Z,27.00
2017-06-03T01:01:14.098Z,23.00
2017-06-03T01:02:14.826Z,22.00
2017-06-03T01:03:15.550Z,24.00
2017-06-03T01:04:16.277Z,26.00
2017-06-03T01:05:17.007Z,26.00
2017-06-03T01:06:17.986Z,26.00
2017-06-03T01:07:18.714Z,24.00
2017-06-03T01:08:19.441Z,25.00
2017-06-03T01:09:20.170Z,25.00
2017-06-03T01:10:20.895Z,23.00
2017-06-03T01:11:21.874Z,25.00
2017-06-03T01:12:22.601Z,23.00
2017-06-03T01:13:23.331Z,24.00
2017-06-03T01:14:24.060Z,24.00
2017-06-03T01:15:24.787Z,24.00
2017-06-03T01:16:25.765Z,22.00
2017-06-03T01:17:26.494Z,22.00
2017-06-03T01:18:27.219Z,22.00
2017-06-03T01:19:27.947Z,26.00
2017-06-03T01:20:28.697Z,20.00
2017-06-03T01:21:29.675Z,22.00
2017-06-03T01:22:30.403Z,23.00
2017-06-03T01:23:31.131Z,23.00
2017-06-03T01:24:31.858Z,22.00
2017-06-03T01:25:32.588Z,22.00
2017-06-03T01:26:33.568Z,21.00
2017-06-03T01:27:34.292Z,25.00
2017-06-03T01:28:35.021Z,21.00
2017-06-03T01:29:35.751Z,22.00
2017-06-03T01:30:36.479Z,23.00
2017-06-03T01:31:37.458Z,25.00
2017-06-03T01:32:38.188Z,24.00
2017-06-03T01:33:38.914Z,23.00
2017-06-03T01:34:39.644Z,22.00
2017-06-03T01:35:40.374Z,25.00
2017-06-03T01:36:41.353Z,21.00
2017-06-03T01:37:42.079Z,19.00
2017-06-03T01:38:42.839Z,19.00
2017-06-03T01:39:43.562Z,20.00
2017-06-03T01:40:44.316Z,24.00
2017-06-03T01:41:45.296Z,23.00
2017-06-03T01:42:46.023Z,23.00
2017-06-03T01:43:46.751Z,24.00
2017-06-03T01:44:47.479Z,24.00
2017-06-03T01:45:48.209Z,21.00
2017-06-03T01:46:49.189Z,21.00
2017-06-03T01:47:49.918Z,24.00
2017-06-03T01:48:50.669Z,22.00
2017-06-03T01:49:51.396Z,25.00
2017-06-03T01:50:52.124Z,26.00
2017-06-03T01:51:53.102Z,24.00
2017-06-03T01:52:53.828Z,25.00
2017-06-03T01:53:54.560Z,24.00
2017-06-03T01:54:55.283Z,21.00
2017-06-03T01:55:56.011Z,24.00
2017-06-03T01:56:56.995Z,24.00
2017-06-03T01:57:57.721Z,25.00
2017-06-03T01:58:58.447Z,24.00
2017-06-03T01:59:59.174Z,24.00
2017-06-03T02:00:59.904Z,26.00
2017-06-03T02:02:00.884Z,25.00
2017-06-03T02:03:01.608Z,26.00
2017-06-03T02:04:02.335Z,23.00
2017-06-03T02:05:03.063Z,24.00
2017-06-03T02:06:03.793Z,23.00
2017-06-03T02:07:04.821Z,25.00
2017-06-03T02:08:05.550Z,23.00
2017-06-03T02:09:06.277Z,25.00
2017-06-03T02:10:07.010Z,26.00
2017-06-03T02:11:07.733Z,25.00
2017-06-03T02:12:08.710Z,27.00
2017-06-03T02:13:09.438Z,24.00
2017-06-03T02:14:10.167Z,24.00
2017-06-03T02:15:10.893Z,24.00
2017-06-03T02:16:11.620Z,25.00
2017-06-03T02:17:12.598Z,24.00
2017-06-03T02:18:13.327Z,26.00
2017-06-03T02:19:14.053Z,22.00
2017-06-03T02:20:14.780Z,27.00
2017-06-03T02:21:15.510Z,24.00
2017-06-03T02:22:16.495Z,25.00
2017-06-03T02:23:17.243Z,24.00
2017-06-03T02:24:17.970Z,28.00
2017-06-03T02:25:18.701Z,25.00
2017-06-03T02:26:19.428Z,24.00
2017-06-03T02:27:20.409Z,27.00
2017-06-03T02:28:21.134Z,29.00
2017-06-03T02:29:21.886Z,29.00
2017-06-03T02:30:22.620Z,30.00
2017-06-03T02:31:23.347Z,30.00
2017-06-03T02:32:24.324Z,26.00
2017-06-03T02:33:25.049Z,32.00
2017-06-03T02:34:25.779Z,31.00
2017-06-03T02:35:26.509Z,30.00
2017-06-03T02:36:27.264Z,31.00
2017-06-03T02:37:28.241Z,27.00
2017-06-03T02:38:28.969Z,27.00
2017-06-03T02:39:29.722Z,28.00
2017-06-03T02:40:30.449Z,30.00
2017-06-03T02:41:31.178Z,29.00
2017-06-03T02:42:32.156Z,27.00
2017-06-03T02:43:32.886Z,27.00
2017-06-03T02:44:33.612Z,25.00
2017-06-03T02:45:34.338Z,28.00
2017-06-03T02:46:35.091Z,29.00
2017-06-03T02:47:36.121Z,28.00
2017-06-03T02:48:36.847Z,27.00
2017-06-03T02:49:37.577Z,28.00
2017-06-03T02:50:38.305Z,29.00
2017-06-03T02:51:39.036Z,27.00
2017-06-03T02:52:40.039Z,28.00
2017-06-03T02:53:40.769Z,26.00
2017-06-03T02:54:41.521Z,26.00
2017-06-03T02:55:42.248Z,25.00
2017-06-03T02:56:42.976Z,27.00
2017-06-03T02:57:43.952Z,25.00
2017-06-03T02:58:44.681Z,29.00
2017-06-03T02:59:45.413Z,27.00
2017-06-03T03:00:46.148Z,24.00
2017-06-03T03:01:46.872Z,29.00
2017-06-03T03:02:47.854Z,26.00
2017-06-03T03:03:48.581Z,25.00
2017-06-03T03:04:49.309Z,29.00
2017-06-03T03:05:50.038Z,26.00
2017-06-03T03:06:50.770Z,29.00
2017-06-03T03:07:51.749Z,28.00
2017-06-03T03:08:52.479Z,28.00
2017-06-03T03:09:53.206Z,28.00
2017-06-03T03:10:53.937Z,24.00
2017-06-03T03:11:54.664Z,25.00
2017-06-03T03:12:55.644Z,26.00
2017-06-03T03:13:56.372Z,24.00
2017-06-03T03:14:57.104Z,25.00
2017-06-03T03:15:57.831Z,26.00
2017-06-03T03:16:58.562Z,26.00
2017-06-03T03:17:59.544Z,26.00
2017-06-03T03:19:00.270Z,26.00
2017-06-03T03:20:01.002Z,27.00
2017-06-03T03:21:01.728Z,25.00
2017-06-03T03:22:02.460Z,29.00
2017-06-03T03:23:03.439Z,28.00
2017-06-03T03:24:04.170Z,26.00
2017-06-03T03:25:04.897Z,30.00
2017-06-03T03:26:05.631Z,27.00
2017-06-03T03:27:06.382Z,28.00
2017-06-03T03:28:07.362Z,29.00
2017-06-03T03:29:08.118Z,28.00
2017-06-03T03:30:08.846Z,28.00
2017-06-03T03:31:09.575Z,26.00
2017-06-03T03:32:10.306Z,28.00
2017-06-03T03:33:11.334Z,27.00
2017-06-03T03:34:12.063Z,25.00
2017-06-03T03:35:12.793Z,29.00
2017-06-03T03:36:13.525Z,29.00
2017-06-03T03:37:14.254Z,24.00
2017-06-03T03:38:15.238Z,27.00
2017-06-03T03:39:15.968Z,27.00
2017-06-03T03:40:16.697Z,26.00
2017-06-03T03:41:17.425Z,25.00
2017-06-03T03:42:18.157Z,29.00
2017-06-03T03:43:19.143Z,27.00
2017-06-03T03:44:19.865Z,31.00
2017-06-03T03:45:20.598Z,31.00
2017-06-03T03:46:21.329Z,30.00
2017-06-03T03:47:22.059Z,29.00
2017-06-03T03:48:23.037Z,29.00
2017-06-03T03:49:23.767Z,28.00
2017-06-03T03:50:24.495Z,30.00
2017-06-03T03:51:25.227Z,29.00
2017-06-03T03:52:25.955Z,28.00
2017-06-03T03:53:26.935Z,29.00
2017-06-03T03:54:27.666Z,28.00
2017-06-03T03:55:28.398Z,28.00
2017-06-03T03:56:29.128Z,32.00
2017-06-03T03:57:29.856Z,32.00
2017-06-03T03:58:30.838Z,35.00
2017-06-03T03:59:31.564Z,32.00
2017-06-03T04:00:32.298Z,31.00
2017-06-03T04:01:33.026Z,32.00
2017-06-03T04:02:33.755Z,28.00
2017-06-03T04:03:34.759Z,30.00
2017-06-03T04:04:35.488Z,30.00
2017-06-03T04:05:36.221Z,30.00
2017-06-03T04:06:36.949Z,27.00
2017-06-03T04:07:37.679Z,29.00
2017-06-03T04:08:38.663Z,27.00
2017-06-03T04:09:39.396Z,27.00
2017-06-03T04:10:40.155Z,28.00
2017-06-03T04:11:40.884Z,26.00
2017-06-03T04:12:41.614Z,25.00
2017-06-03T04:13:42.598Z,27.00
2017-06-03T04:14:43.327Z,26.00
2017-06-03T04:15:44.058Z,23.00
2017-06-03T04:16:44.793Z,28.00
2017-06-03T04:17:45.522Z,25.00
2017-06-03T04:18:46.506Z,24.00
2017-06-03T04:19:47.238Z,27.00
2017-06-03T04:20:47.969Z,25.00
2017-06-03T04:21:48.700Z,25.00
2017-06-03T04:22:49.435Z,23.00
2017-06-03T04:23:50.415Z,28.00
2017-06-03T04:24:51.146Z,23.00
2017-06-03T04:25:51.875Z,25.00
2017-06-03T04:26:52.607Z,30.00
2017-06-03T04:27:53.337Z,27.00
2017-06-03T04:28:54.319Z,26.00
2017-06-03T04:29:55.074Z,27.00
2017-06-03T04:30:55.805Z,25.00
2017-06-03T04:31:56.535Z,27.00
2017-06-03T04:32:57.268Z,25.00
2017-06-03T04:33:58.249Z,24.00
2017-06-03T04:34:58.980Z,26.00
2017-06-03T04:35:59.713Z,26.00
2017-06-03T04:37:00.443Z,28.00
2017-06-03T04:38:01.173Z,28.00
2017-06-03T04:39:02.179Z,26.00
2017-06-03T04:40:02.909Z,25.00
2017-06-03T04:41:03.642Z,26.00
2017-06-03T04:42:04.376Z,26.00
2017-06-03T04:43:05.103Z,24.00
2017-06-03T04:44:06.137Z,26.00
2017-06-03T04:45:06.898Z,27.00
2017-06-03T04:46:07.632Z,27.00
2017-06-03T04:47:08.362Z,26.00
2017-06-03T04:48:09.094Z,26.00
2017-06-03T04:49:10.076Z,26.00
2017-06-03T04:50:10.805Z,25.00
2017-06-03T04:51:11.534Z,27.00
2017-06-03T04:52:12.266Z,29.00
2017-06-03T04:53:12.999Z,27.00
2017-06-03T04:54:13.978Z,28.00
2017-06-03T04:55:14.711Z,25.00
2017-06-03T04:56:15.456Z,29.00
2017-06-03T04:57:16.189Z,27.00
2017-06-03T04:58:16.942Z,25.00
2017-06-03T04:59:17.946Z,30.00
2017-06-03T05:00:18.700Z,30.00
2017-06-03T05:01:19.431Z,27.00
2017-06-03T05:02:20.164Z,28.00
2017-06-03T05:03:20.893Z,28.00
2017-06-03T05:04:21.875Z,30.00
2017-06-03T05:05:22.620Z,34.00
2017-06-03T05:06:23.350Z,31.00
2017-06-03T05:07:24.107Z,32.00
2017-06-03T05:08:24.840Z,27.00
2017-06-03T05:09:25.847Z,29.00
2017-06-03T05:10:26.577Z,31.00
2017-06-03T05:11:27.311Z,29.00
2017-06-03T05:12:28.041Z,34.00
2017-06-03T05:13:28.800Z,36.00
2017-06-03T05:14:29.783Z,33.00
2017-06-03T05:15:30.516Z,31.00
2017-06-03T05:16:31.245Z,34.00
2017-06-03T05:17:31.980Z,29.00
2017-06-03T05:18:32.711Z,29.00
2017-06-03T05:19:33.695Z,34.00
2017-06-03T05:20:34.428Z,33.00
2017-06-03T05:21:35.160Z,32.00
2017-06-03T05:22:35.892Z,31.00
2017-06-03T05:23:36.625Z,29.00
2017-06-03T05:24:37.609Z,34.00
2017-06-03T05:25:38.340Z,31.00
2017-06-03T05:26:39.073Z,30.00
2017-06-03T05:27:39.804Z,29.00
2017-06-03T05:28:40.536Z,27.00
2017-06-03T05:29:41.522Z,34.00
2017-06-03T05:30:42.255Z,31.00
2017-06-03T05:31:42.986Z,30.00
2017-06-03T05:32:43.721Z,32.00
2017-06-03T05:33:44.457Z,32.00
2017-06-03T05:34:45.439Z,31.00
2017-06-03T05:35:46.193Z,34.00
2017-06-03T05:36:46.931Z,31.00
2017-06-03T05:37:47.661Z,29.00
2017-06-03T05:38:48.390Z,31.00
2017-06-03T05:39:49.375Z,31.00
2017-06-03T05:40:50.104Z,32.00
2017-06-03T05:41:50.835Z,30.00
2017-06-03T05:42:51.572Z,29.00
2017-06-03T05:43:52.302Z,34.00
2017-06-03T05:44:53.312Z,33.00
2017-06-03T05:45:54.043Z,32.00
2017-06-03T05:46:54.776Z,31.00
2017-06-03T05:47:55.532Z,33.00
2017-06-03T05:48:56.288Z,32.00
2017-06-03T05:49:57.270Z,32.00
2017-06-03T05:50:58.006Z,33.00
2017-06-03T05:51:58.736Z,31.00
2017-06-03T05:52:59.470Z,34.00
2017-06-03T05:54:00.204Z,31.00
2017-06-03T05:55:01.213Z,31.00
2017-06-03T05:56:01.947Z,32.00
2017-06-03T05:57:02.687Z,31.00
2017-06-03T05:58:03.446Z,32.00
2017-06-03T05:59:04.204Z,29.00
2017-06-03T06:00:05.212Z,27.00
2017-06-03T06:01:05.946Z,29.00
2017-06-03T06:02:06.680Z,32.00
2017-06-03T06:03:07.415Z,31.00
2017-06-03T06:04:08.148Z,33.00
2017-06-03T06:05:09.131Z,38.00
2017-06-03T06:06:09.886Z,38.00
2017-06-03T06:07:10.624Z,33.00
2017-06-03T06:08:11.356Z,32.00
2017-06-03T06:09:12.092Z,40.00
2017-06-03T06:10:13.074Z,51.00
2017-06-03T06:11:13.812Z,37.00
2017-06-03T06:12:14.545Z,39.00
2017-06-03T06:13:15.303Z,33.00
2017-06-03T06:14:16.033Z,33.00
2017-06-03T06:15:17.018Z,30.00
2017-06-03T06:16:17.775Z,32.00
2017-06-03T06:17:18.507Z,35.00
2017-06-03T06:18:19.239Z,40.00
2017-06-03T06:19:19.972Z,35.00
2017-06-03T06:20:21.005Z,33.00
2017-06-03T06:21:21.736Z,32.00
2017-06-03T06:22:22.473Z,35.00
2017-06-03T06:23:23.207Z,28.00
2017-06-03T06:24:23.942Z,33.00
2017-06-03T06:25:24.923Z,34.00
2017-06-03T06:26:25.681Z,34.00
2017-06-03T06:27:26.433Z,33.00
2017-06-03T06:28:27.168Z,32.00
2017-06-03T06:29:27.901Z,36.00
2017-06-03T06:30:28.885Z,34.00
2017-06-03T06:31:29.620Z,33.00
2017-06-03T06:32:30.357Z,33.00
2017-06-03T06:33:31.093Z,32.00
2017-06-03T06:34:31.823Z,35.00
2017-06-03T06:35:32.830Z,34.00
2017-06-03T06:36:33.567Z,33.00
2017-06-03T06:37:34.303Z,32.00
2017-06-03T06:38:35.037Z,35.00
2017-06-03T06:39:35.773Z,32.00
2017-06-03T06:40:36.755Z,33.00
2017-06-03T06:41:37.490Z,33.00
2017-06-03T06:42:38.222Z,33.00
2017-06-03T06:43:38.957Z,37.00
2017-06-03T06:44:39.692Z,33.00
2017-06-03T06:45:40.681Z,35.00
2017-06-03T06:46:41.411Z,34.00
2017-06-03T06:47:42.149Z,40.00
2017-06-03T06:48:42.882Z,40.00
2017-06-03T06:49:43.618Z,34.00
2017-06-03T06:50:44.605Z,44.00
2017-06-03T06:51:45.338Z,38.00
2017-06-03T06:52:46.075Z,32.00
2017-06-03T06:53:46.808Z,42.00
2017-06-03T06:54:47.542Z,38.00
2017-06-03T06:55:48.529Z,36.00
2017-06-03T06:56:49.266Z,53.00
2017-06-03T06:57:50.000Z,42.00
2017-06-03T06:58:50.736Z,37.00
2017-06-03T06:59:51.494Z,38.00
2017-06-03T07:00:52.481Z,37.00
2017-06-03T07:01:53.212Z,31.00
2017-06-03T07:02:53.949Z,34.00
2017-06-03T07:03:54.727Z,32.00
2017-06-03T07:04:55.459Z,32.00
2017-06-03T07:05:56.443Z,39.00
2017-06-03T07:06:57.178Z,30.00
2017-06-03T07:07:57.914Z,30.00
2017-06-03T07:08:58.653Z,32.00
2017-06-03T07:09:59.386Z,32.00
2017-06-03T07:11:00.370Z,40.00
2017-06-03T07:12:01.146Z,32.00
2017-06-03T07:13:01.879Z,29.00
2017-06-03T07:14:02.615Z,35.00
2017-06-03T07:15:03.374Z,36.00
2017-06-03T07:16:04.359Z,37.00
2017-06-03T07:17:05.091Z,34.00
2017-06-03T07:18:05.847Z,37.00
2017-06-03T07:19:06.638Z,33.00
2017-06-03T07:20:07.375Z,28.00
2017-06-03T07:21:08.361Z,33.00
2017-06-03T07:22:09.094Z,33.00
2017-06-03T07:23:09.827Z,32.00
2017-06-03T07:24:10.564Z,32.00
2017-06-03T07:25:11.297Z,34.00
2017-06-03T07:26:12.285Z,37.00
2017-06-03T07:27:13.018Z,32.00
2017-06-03T07:28:13.751Z,32.00
2017-06-03T07:29:14.486Z,33.00
2017-06-03T07:30:15.218Z,30.00
2017-06-03T07:31:16.295Z,35.00
2017-06-03T07:32:17.032Z,35.00
2017-06-03T07:33:17.787Z,33.00
2017-06-03T07:34:18.521Z,34.00
2017-06-03T07:35:19.254Z,36.00
2017-06-03T07:36:20.236Z,30.00
2017-06-03T07:37:20.971Z,36.00
2017-06-03T07:38:21.704Z,33.00
2017-06-03T07:39:22.441Z,36.00
2017-06-03T07:40:23.170Z,35.00
2017-06-03T07:41:24.178Z,27.00
2017-06-03T07:42:24.910Z,32.00
2017-06-03T07:43:25.647Z,33.00
2017-06-03T07:44:26.378Z,30.00
2017-06-03T07:45:27.137Z,31.00
2017-06-03T07:46:28.121Z,32.00
2017-06-03T07:47:28.855Z,30.00
2017-06-03T07:48:29.592Z,30.00
2017-06-03T07:49:30.324Z,28.00
2017-06-03T07:50:31.058Z,28.00
2017-06-03T07:51:32.092Z,30.00
2017-06-03T07:52:32.826Z,27.00
2017-06-03T07:53:33.561Z,31.00
2017-06-03T07:54:34.297Z,28.00
2017-06-03T07:55:35.032Z,25.00
2017-06-03T07:56:36.042Z,29.00
2017-06-03T07:57:36.776Z,25.00
2017-06-03T07:58:37.512Z,23.00
2017-06-03T07:59:38.247Z,28.00
2017-06-03T08:00:39.006Z,27.00
2017-06-03T08:01:39.993Z,29.00
2017-06-03T08:02:40.726Z,25.00
2017-06-03T08:03:41.463Z,24.00
2017-06-03T08:04:42.198Z,23.00
2017-06-03T08:05:42.935Z,23.00
2017-06-03T08:06:43.920Z,24.00
2017-06-03T08:07:44.658Z,24.00
2017-06-03T08:08:45.395Z,24.00
2017-06-03T08:09:46.133Z,25.00
2017-06-03T08:10:46.874Z,23.00
2017-06-03T08:11:47.858Z,27.00
2017-06-03T08:12:48.595Z,25.00
2017-06-03T08:13:49.332Z,25.00
2017-06-03T08:14:50.067Z,22.00
2017-06-03T08:15:50.805Z,22.00
2017-06-03T08:16:51.795Z,23.00
2017-06-03T08:17:52.532Z,23.00
2017-06-03T08:18:53.269Z,17.00
2017-06-03T08:19:54.012Z,21.00
2017-06-03T08:20:54.744Z,19.00
2017-06-03T08:21:55.732Z,23.00
2017-06-03T08:22:56.470Z,20.00
2017-06-03T08:23:57.207Z,18.00
2017-06-03T08:24:57.947Z,19.00
2017-06-03T08:25:58.687Z,19.00
2017-06-03T08:26:59.727Z,20.00
2017-06-03T08:28:00.468Z,24.00
2017-06-03T08:29:01.212Z,24.00
2017-06-03T08:30:01.945Z,23.00
2017-06-03T08:31:02.683Z,24.00
2017-06-03T08:32:03.695Z,26.00
2017-06-03T08:33:04.435Z,24.00
2017-06-03T08:34:05.175Z,23.00
2017-06-03T08:35:05.915Z,25.00
2017-06-03T08:36:06.657Z,24.00
2017-06-03T08:37:07.675Z,24.00
2017-06-03T08:38:08.412Z,26.00
2017-06-03T08:39:09.157Z,24.00
2017-06-03T08:40:09.898Z,24.00
2017-06-03T08:41:10.639Z,25.00
2017-06-03T08:42:11.630Z,27.00
2017-06-03T08:43:12.375Z,27.00
2017-06-03T08:44:13.116Z,27.00
2017-06-03T08:45:13.859Z,25.00
2017-06-03T08:46:14.603Z,26.00
2017-06-03T08:47:15.600Z,22.00
2017-06-03T08:48:16.362Z,24.00
2017-06-03T08:49:17.108Z,26.00
2017-06-03T08:50:17.854Z,24.00
2017-06-03T08:51:18.601Z,23.00
2017-06-03T08:52:19.619Z,26.00
2017-06-03T08:53:20.392Z,22.00
2017-06-03T08:54:21.161Z,25.00
2017-06-03T08:55:21.906Z,23.00
2017-06-03T08:56:22.676Z,20.00
2017-06-03T08:57:23.666Z,22.00
2017-06-03T08:58:24.409Z,23.00
2017-06-03T08:59:25.150Z,24.00
2017-06-03T09:00:25.892Z,21.00
2017-06-03T09:01:26.636Z,24.00
2017-06-03T09:02:27.631Z,23.00
2017-06-03T09:03:28.375Z,23.00
2017-06-03T09:04:29.120Z,21.00
2017-06-03T09:05:29.865Z,19.00
2017-06-03T09:06:30.610Z,23.00
2017-06-03T09:07:31.607Z,22.00
2017-06-03T09:08:32.349Z,20.00
2017-06-03T09:09:33.094Z,22.00
2017-06-03T09:10:33.839Z,21.00
2017-06-03T09:11:34.587Z,24.00
2017-06-03T09:12:35.583Z,20.00
2017-06-03T09:13:36.329Z,23.00
2017-06-03T09:14:37.074Z,18.00
2017-06-03T09:15:37.818Z,21.00
2017-06-03T09:16:38.565Z,19.00
2017-06-03T09:17:39.562Z,22.00
2017-06-03T09:18:40.310Z,22.00
2017-06-03T09:19:41.054Z,22.00
2017-06-03T09:20:41.801Z,21.00
2017-06-03T09:21:42.547Z,18.00
2017-06-03T09:22:43.548Z,20.00
2017-06-03T09:23:44.293Z,17.00
2017-06-03T09:24:45.042Z,17.00
2017-06-03T09:25:45.812Z,17.00
2017-06-03T09:26:46.559Z,16.00
2017-06-03T09:27:47.556Z,18.00
2017-06-03T09:28:48.309Z,17.00
2017-06-03T09:29:49.057Z,20.00
2017-06-03T09:30:49.810Z,17.00
2017-06-03T09:31:50.564Z,19.00
2017-06-03T09:32:51.561Z,16.00
2017-06-03T09:33:52.313Z,17.00
2017-06-03T09:34:53.065Z,18.00
2017-06-03T09:35:53.820Z,15.00
2017-06-03T09:36:54.577Z,20.00
2017-06-03T09:37:55.605Z,17.00
2017-06-03T09:38:56.360Z,19.00
2017-06-03T09:39:57.137Z,16.00
2017-06-03T09:40:57.890Z,15.00
2017-06-03T09:41:58.645Z,16.00
2017-06-03T09:42:59.653Z,16.00
2017-06-03T09:44:00.409Z,16.00
2017-06-03T09:45:01.169Z,15.00
2017-06-03T09:46:01.923Z,11.00
2017-06-03T09:47:02.683Z,13.00
2017-06-03T09:48:03.696Z,16.00
2017-06-03T09:49:04.450Z,16.00
2017-06-03T09:50:05.231Z,13.00
2017-06-03T09:51:05.991Z,13.00
2017-06-03T09:52:06.744Z,13.00
2017-06-03T09:53:07.755Z,12.00
2017-06-03T09:54:08.511Z,14.00
2017-06-03T09:55:09.266Z,13.00
2017-06-03T09:56:10.027Z,12.00
2017-06-03T09:57:10.782Z,13.00
2017-06-03T09:58:11.786Z,12.00
2017-06-03T09:59:12.539Z,11.00
2017-06-03T10:00:13.293Z,14.00
2017-06-03T10:01:14.052Z,9.00
2017-06-03T10:02:14.835Z,12.00
2017-06-03T10:03:15.843Z,12.00
2017-06-03T10:04:16.601Z,9.00
2017-06-03T10:05:17.356Z,9.00
2017-06-03T10:06:18.140Z,11.00
2017-06-03T10:07:18.900Z,9.00
2017-06-03T10:08:19.904Z,8.00
2017-06-03T10:09:20.656Z,8.00
2017-06-03T10:10:21.409Z,10.00
2017-06-03T10:11:22.161Z,8.00
2017-06-03T10:12:22.920Z,8.00
2017-06-03T10:13:23.952Z,8.00
2017-06-03T10:14:24.710Z,9.00
2017-06-03T10:15:25.466Z,9.00
2017-06-03T10:16:26.223Z,10.00
2017-06-03T10:17:26.985Z,12.00
2017-06-03T10:18:28.014Z,8.00
2017-06-03T10:19:28.771Z,9.00
2017-06-03T10:20:29.521Z,8.00
2017-06-03T10:21:30.270Z,8.00
2017-06-03T10:22:31.019Z,8.00
2017-06-03T10:23:32.028Z,7.00
2017-06-03T10:24:32.784Z,8.00
2017-06-03T10:25:33.535Z,8.00
2017-06-03T10:26:34.286Z,9.00
2017-06-03T10:27:35.042Z,9.00
2017-06-03T10:28:36.047Z,8.00
2017-06-03T10:29:36.805Z,11.00
2017-06-03T10:30:37.556Z,9.00
2017-06-03T10:31:38.307Z,8.00
2017-06-03T10:32:39.062Z,9.00
2017-06-03T10:33:40.063Z,9.00
2017-06-03T10:34:40.820Z,10.00
2017-06-03T10:35:41.570Z,9.00
2017-06-03T10:36:42.326Z,9.00
2017-06-03T10:37:43.082Z,10.00
2017-06-03T10:38:44.088Z,10.00
2017-06-03T10:39:44.843Z,8.00
2017-06-03T10:40:45.616Z,9.00
2017-06-03T10:41:46.370Z,8.00
2017-06-03T10:42:47.124Z,8.00
2017-06-03T10:43:48.129Z,8.00
2017-06-03T10:44:48.886Z,10.00
2017-06-03T10:45:49.644Z,9.00
2017-06-03T10:46:50.398Z,8.00
2017-06-03T10:47:51.160Z,8.00
2017-06-03T10:48:52.159Z,11.00
2017-06-03T10:49:52.916Z,11.00
2017-06-03T10:50:53.672Z,11.00
2017-06-03T10:51:54.435Z,11.00
2017-06-03T10:52:55.186Z,9.00
2017-06-03T10:53:56.191Z,7.00
2017-06-03T10:54:56.974Z,6.00
2017-06-03T10:55:57.726Z,5.00
2017-06-03T10:56:58.482Z,6.00
2017-06-03T10:57:59.234Z,7.00
2017-06-03T10:59:00.261Z,6.00
2017-06-03T11:00:01.015Z,5.00
2017-06-03T11:01:01.771Z,6.00
2017-06-03T11:02:02.525Z,6.00
2017-06-03T11:03:03.277Z,6.00
2017-06-03T11:04:04.275Z,6.00
2017-06-03T11:05:05.031Z,6.00
2017-06-03T11:06:05.778Z,6.00
2017-06-03T11:07:06.552Z,5.00
2017-06-03T11:08:07.307Z,5.00
2017-06-03T11:09:08.310Z,6.00
2017-06-03T11:10:09.083Z,6.00
2017-06-03T11:11:09.833Z,7.00
2017-06-03T11:12:10.585Z,8.00
2017-06-03T11:13:11.339Z,5.00
2017-06-03T11:14:12.370Z,6.00
2017-06-03T11:15:13.125Z,6.00
2017-06-03T11:16:13.877Z,5.00
2017-06-03T11:17:14.632Z,6.00
2017-06-03T11:18:15.410Z,8.00
2017-06-03T11:19:16.416Z,6.00
2017-06-03T11:20:17.190Z,8.00
2017-06-03T11:21:17.942Z,6.00
2017-06-03T11:22:18.695Z,8.00
2017-06-03T11:23:19.448Z,9.00
2017-06-03T11:24:20.447Z,7.00
2017-06-03T11:25:21.202Z,9.00
2017-06-03T11:26:21.955Z,8.00
2017-06-03T11:27:22.730Z,10.00
2017-06-03T11:28:23.487Z,8.00
2017-06-03T11:29:24.490Z,7.00
2017-06-03T11:30:25.241Z,7.00
2017-06-03T11:31:25.993Z,8.00
2017-06-03T11:32:26.744Z,8.00
2017-06-03T11:33:27.518Z,8.00
2017-06-03T11:34:28.523Z,7.00
2017-06-03T11:35:29.280Z,10.00
2017-06-03T11:36:30.045Z,7.00
2017-06-03T11:37:30.825Z,8.00
2017-06-03T11:38:31.579Z,9.00
2017-06-03T11:39:32.581Z,8.00
2017-06-03T11:40:33.335Z,8.00
2017-06-03T11:41:34.082Z,7.00
2017-06-03T11:42:34.840Z,11.00
2017-06-03T11:43:35.595Z,11.00
2017-06-03T11:44:36.604Z,9.00
2017-06-03T11:45:37.356Z,11.00
2017-06-03T11:46:38.109Z,10.00
2017-06-03T11:47:38.865Z,9.00
2017-06-03T11:48:39.642Z,8.00
2017-06-03T11:49:40.647Z,10.00
2017-06-03T11:50:41.399Z,10.00
2017-06-03T11:51:42.150Z,11.00
2017-06-03T11:52:42.905Z,11.00
2017-06-03T11:53:43.660Z,15.00
2017-06-03T11:54:44.661Z,12.00
2017-06-03T11:55:45.438Z,13.00
2017-06-03T11:56:46.199Z,13.00
2017-06-03T11:57:46.947Z,13.00
2017-06-03T11:58:47.702Z,12.00
2017-06-03T11:59:48.757Z,14.00
2017-06-03T12:00:49.507Z,13.00
2017-06-03T12:01:50.264Z,12.00
2017-06-03T12:02:51.012Z,13.00
2017-06-03T12:03:51.766Z,13.00
2017-06-03T12:04:52.768Z,12.00
2017-06-03T12:05:53.524Z,13.00
2017-06-03T12:06:54.277Z,14.00
2017-06-03T12:07:55.027Z,19.00
2017-06-03T12:08:55.776Z,14.00
2017-06-03T12:09:56.779Z,15.00
2017-06-03T12:10:57.532Z,13.00
2017-06-03T12:11:58.284Z,14.00
2017-06-03T12:12:59.034Z,15.00
2017-06-03T12:13:59.782Z,12.00
2017-06-03T12:15:00.782Z,13.00
2017-06-03T12:16:01.530Z,13.00
2017-06-03T12:17:02.275Z,13.00
2017-06-03T12:18:03.021Z,14.00
2017-06-03T12:19:03.768Z,13.00
2017-06-03T12:20:04.814Z,11.00
2017-06-03T12:21:05.559Z,11.00
2017-06-03T12:22:06.310Z,11.00
2017-06-03T12:23:07.063Z,12.00
2017-06-03T12:24:07.817Z,10.00
2017-06-03T12:25:08.819Z,13.00
2017-06-03T12:26:09.569Z,11.00
2017-06-03T12:27:10.325Z,15.00
2017-06-03T12:28:11.084Z,10.00
2017-06-03T12:29:11.836Z,8.00
2017-06-03T12:30:12.838Z,8.00
2017-06-03T12:31:13.590Z,11.00
2017-06-03T12:32:14.346Z,9.00
2017-06-03T12:33:15.099Z,10.00
2017-06-03T12:34:15.855Z,11.00
2017-06-03T12:35:16.864Z,10.00
2017-06-03T12:36:17.610Z,9.00
2017-06-03T12:37:18.364Z,9.00
2017-06-03T12:38:19.112Z,7.00
2017-06-03T12:39:19.863Z,7.00
2017-06-03T12:40:20.892Z,8.00
2017-06-03T12:41:21.645Z,8.00
2017-06-03T12:42:22.429Z,7.00
2017-06-03T12:43:23.173Z,6.00
2017-06-03T12:44:23.924Z,6.00
2017-06-03T12:45:24.950Z,7.00
2017-06-03T12:46:25.722Z,8.00
2017-06-03T12:47:26.467Z,7.00
2017-06-03T12:48:27.217Z,6.00
2017-06-03T12:49:27.967Z,7.00
2017-06-03T12:50:28.966Z,7.00
2017-06-03T12:51:29.710Z,10.00
2017-06-03T12:52:30.452Z,8.00
2017-06-03T12:53:31.199Z,8.00
2017-06-03T12:54:31.942Z,9.00
2017-06-03T12:55:32.988Z,10.00
2017-06-03T12:56:33.731Z,9.00
2017-06-03T12:57:34.474Z,11.00
2017-06-03T12:58:35.214Z,8.00
2017-06-03T12:59:35.957Z,9.00
2017-06-03T13:00:36.953Z,8.00
2017-06-03T13:01:37.694Z,10.00
2017-06-03T13:02:38.437Z,9.00
2017-06-03T13:03:39.177Z,8.00
2017-06-03T13:04:39.923Z,10.00
2017-06-03T13:05:40.915Z,7.00
2017-06-03T13:06:41.676Z,8.00